Time;durP1;ratioP1;P1;durP2;ratioP2;P2;SDS_P1;SDS_P2;PMS_P1;PMS_P2;Temp;Humidity;BMP_temperature;BMP_pressure;BME280_temperature;BME280_humidity;BME280_pressure;Samples;Min_cycle;Max_cycle;Signal;HPM_P1;HPM_P2
2022/08/26 00:01:49;;;;;;;9.95;5.42;;;;;;;17.49;68.47;99180.77;1665255;86;21506;-66
2022/08/26 00:04:15;;;;;;;7.85;5.00;;;;;;;17.46;68.71;99176.56;1659090;86;21444;-66
2022/08/26 00:06:43;;;;;;;9.23;5.30;;;;;;;17.44;69.16;99175.00;1664664;86;21455;-66
2022/08/26 00:09:10;;;;;;;6.90;5.35;;;;;;;17.42;69.30;99172.95;1669794;86;20975;-66
2022/08/26 00:11:38;;;;;;;7.10;5.58;;;;;;;17.41;69.65;99177.37;1657474;86;21070;-66
2022/08/26 00:14:05;;;;;;;6.95;5.53;;;;;;;17.42;70.21;99176.42;1664791;86;21030;-66
2022/08/26 00:16:33;;;;;;;8.53;5.47;;;;;;;17.43;70.40;99176.79;1669900;84;21019;-66
2022/08/26 00:18:59;;;;;;;6.78;5.35;;;;;;;17.45;70.47;99170.95;1669847;86;21124;-66
2022/08/26 00:21:26;;;;;;;10.68;5.35;;;;;;;17.46;70.57;99171.78;1657448;86;21133;-66
2022/08/26 00:23:53;;;;;;;6.78;5.53;;;;;;;17.46;70.68;99163.42;1664779;86;20963;-66
2022/08/26 00:26:19;;;;;;;8.38;5.65;;;;;;;17.47;71.03;99170.36;1669832;84;21022;-66
2022/08/26 00:28:46;;;;;;;7.00;5.17;;;;;;;17.46;71.65;99166.52;1657512;86;21546;-66
2022/08/26 00:31:13;;;;;;;7.20;5.75;;;;;;;17.44;71.71;99161.85;1664685;86;21257;-66
2022/08/26 00:33:39;;;;;;;6.33;5.10;;;;;;;17.43;72.07;99164.95;1669752;86;21026;-66
2022/08/26 00:36:07;;;;;;;10.15;5.58;;;;;;;17.41;72.33;99164.23;1657529;86;21553;-66
2022/08/26 00:38:37;;;;;;;9.45;5.28;;;;;;;17.40;72.48;99159.08;1664689;86;21438;-66
2022/08/26 00:41:04;;;;;;;8.90;5.58;;;;;;;17.38;72.75;99161.02;1669870;86;21026;-66
2022/08/26 00:43:34;;;;;;;7.67;5.67;;;;;;;17.35;72.60;99154.67;1657511;86;21170;-66
2022/08/26 00:46:09;;;;;;;8.28;5.58;;;;;;;17.33;72.38;99155.25;1664595;86;20975;-66
2022/08/26 00:48:38;;;;;;;6.22;5.42;;;;;;;17.34;72.28;99152.52;1669753;86;21070;-66
2022/08/26 00:51:15;;;;;;;7.62;6.03;;;;;;;17.34;72.09;99153.83;1657480;86;21027;-64
2022/08/26 00:53:47;;;;;;;6.78;5.95;;;;;;;17.32;72.19;99155.73;1638969;86;20979;-66
2022/08/26 00:56:19;;;;;;;7.20;5.97;;;;;;;17.29;72.54;99155.95;1670331;85;21442;-66
2022/08/26 00:58:46;;;;;;;10.75;5.80;;;;;;;17.26;72.70;99155.33;1657588;86;20971;-66
2022/08/26 01:01:14;;;;;;;6.62;5.28;;;;;;;17.21;72.97;99157.81;1638494;86;21038;-66
2022/08/26 01:03:40;;;;;;;6.37;5.78;;;;;;;17.19;73.10;99157.56;1666699;85;21057;-67
2022/08/26 01:06:08;;;;;;;12.40;5.47;;;;;;;17.18;73.63;99160.70;1630365;88;21580;-66
2022/08/26 01:08:34;;;;;;;10.68;6.05;;;;;;;17.17;75.13;99159.02;1592196;88;21153;-66
2022/08/26 01:11:01;;;;;;;9.53;5.62;;;;;;;17.18;76.32;99159.39;1624008;88;21021;-64
2022/08/26 01:13:28;;;;;;;6.92;5.72;;;;;;;17.18;76.71;99155.44;1630410;87;21523;-67
2022/08/26 01:15:57;;;;;;;7.72;5.53;;;;;;;17.18;77.15;99154.61;1630428;88;20987;-65
2022/08/26 01:18:24;;;;;;;11.03;6.42;;;;;;;17.16;77.50;99154.71;1617388;88;21482;-65
2022/08/26 01:21:18;;;;;;;7.47;5.87;;;;;;;17.15;77.52;99154.35;1624106;88;21478;-65
2022/08/26 01:23:48;;;;;;;7.72;6.08;;;;;;;17.13;77.53;99152.30;1619706;88;21487;-65
2022/08/26 01:26:21;;;;;;;12.43;6.20;;;;;;;17.11;77.78;99152.05;1630494;88;21047;-66
2022/08/26 01:28:50;;;;;;;9.55;5.87;;;;;;;17.09;77.89;99153.95;1630367;88;21081;-66
2022/08/26 01:31:18;;;;;;;9.23;6.22;;;;;;;17.05;78.06;99157.27;1617358;88;21093;-66
2022/08/26 01:34:04;;;;;;;8.10;6.62;;;;;;;17.03;78.04;99153.91;1624038;88;21533;-66
2022/08/26 01:36:30;;;;;;;9.20;6.12;;;;;;;17.02;78.07;99150.92;1630544;88;20971;-65
2022/08/26 01:38:58;;;;;;;9.85;6.17;;;;;;;16.98;78.32;99146.02;1617380;88;21075;-65
2022/08/26 01:41:25;;;;;;;9.75;6.00;;;;;;;16.95;78.25;99148.88;1624048;88;21525;-65
2022/08/26 01:43:53;;;;;;;13.18;7.03;;;;;;;16.94;78.57;99151.97;1630504;88;20999;-65
2022/08/26 01:46:21;;;;;;;9.13;6.08;;;;;;;16.92;78.84;99147.30;1617314;88;21183;-65
2022/08/26 01:48:48;;;;;;;14.68;6.50;;;;;;;16.91;79.32;99150.03;1623937;88;21024;-65
2022/08/26 01:51:15;;;;;;;7.22;6.53;;;;;;;16.90;79.40;99143.94;1630497;87;20987;-65
2022/08/26 01:53:47;;;;;;;10.65;6.60;;;;;;;16.90;78.95;99143.10;1617395;88;20999;-65
2022/08/26 01:56:28;;;;;;;8.23;6.50;;;;;;;16.92;79.06;99135.48;1624120;88;20989;-65
2022/08/26 01:58:56;;;;;;;7.03;6.25;;;;;;;16.91;79.32;99128.55;1630489;88;21134;-66
2022/08/26 02:01:24;;;;;;;9.18;6.15;;;;;;;16.88;79.53;99130.92;1626203;86;20991;-65
2022/08/26 02:04:04;;;;;;;8.23;6.20;;;;;;;16.85;79.54;99129.82;1624993;87;20994;-65
2022/08/26 02:06:32;;;;;;;8.30;6.05;;;;;;;16.85;79.63;99131.14;1635526;87;20995;-66
2022/08/26 02:09:00;;;;;;;10.68;6.62;;;;;;;16.82;80.04;99131.35;1639223;87;21035;-66
2022/08/26 02:11:27;;;;;;;12.13;6.87;;;;;;;16.77;80.66;99130.03;1639218;87;21781;-65
2022/08/26 02:14:01;;;;;;;8.38;7.05;;;;;;;16.77;80.66;99130.03;1639122;87;21023;-65
2022/08/26 02:16:31;;;;;;;14.18;7.53;;;;;;;16.72;80.89;99125.10;1639327;87;21022;-65
2022/08/26 02:18:57;;;;;;;9.08;6.65;;;;;;;16.69;81.18;99129.73;1642568;87;21034;-65
2022/08/26 02:21:24;;;;;;;8.03;6.10;;;;;;;16.65;81.35;99124.33;1620107;87;21439;-65
2022/08/26 02:23:51;;;;;;;6.97;6.28;;;;;;;16.61;81.49;99124.98;1638979;87;21157;-65
2022/08/26 02:26:20;;;;;;;9.45;6.87;;;;;;;16.59;81.56;99124.73;1655142;86;21083;-65
2022/08/26 02:29:04;;;;;;;8.58;6.78;;;;;;;16.58;81.68;99116.52;1618345;87;21488;-65
2022/08/26 02:31:31;;;;;;;9.13;6.62;;;;;;;16.57;82.33;99127.48;1638558;87;20993;-65
2022/08/26 02:34:17;;;;;;;7.80;6.90;;;;;;;16.54;82.68;99123.29;1655425;86;21039;-65
2022/08/26 02:36:44;;;;;;;11.33;6.83;;;;;;;16.54;82.37;99123.29;1613562;86;21172;-65
2022/08/26 02:39:11;;;;;;;10.65;6.53;;;;;;;16.52;82.30;99126.97;1651097;87;21478;-65
2022/08/26 02:41:37;;;;;;;10.98;6.75;;;;;;;16.53;82.23;99136.53;1651054;87;21034;-65
2022/08/26 02:44:06;;;;;;;11.35;7.25;;;;;;;16.52;82.22;99134.84;1651038;87;20982;-65
2022/08/26 02:46:32;;;;;;;14.28;7.87;;;;;;;16.53;82.13;99132.59;1650960;87;20985;-65
2022/08/26 02:49:00;;;;;;;9.48;7.30;;;;;;;16.52;82.00;99134.38;1650973;87;21141;-65
2022/08/26 02:51:27;;;;;;;8.70;7.22;;;;;;;16.51;82.00;99133.17;1650886;87;21068;-65
2022/08/26 02:53:54;;;;;;;11.35;7.00;;;;;;;16.48;82.01;99132.06;1651054;87;21021;-65
2022/08/26 02:56:20;;;;;;;8.95;6.95;;;;;;;16.47;82.03;99133.85;1651057;87;21497;-65
2022/08/26 02:58:49;;;;;;;14.95;6.78;;;;;;;16.47;82.16;99144.83;1639298;87;21508;-65
2022/08/26 03:01:29;;;;;;;9.63;7.08;;;;;;;16.44;82.32;99143.25;1664597;86;21099;-65
2022/08/26 03:03:56;;;;;;;12.63;7.40;;;;;;;16.42;82.38;99144.30;1668808;85;21027;-66
2022/08/26 03:06:23;;;;;;;9.45;7.20;;;;;;;16.38;82.45;99142.87;1666682;86;21035;-66
2022/08/26 03:08:50;;;;;;;8.63;7.60;;;;;;;16.33;82.54;99143.19;1666754;86;21074;-66
2022/08/26 03:11:18;;;;;;;9.08;6.78;;;;;;;16.28;82.75;99143.12;1666770;86;21038;-65
2022/08/26 03:13:45;;;;;;;11.22;7.42;;;;;;;16.23;82.92;99143.45;1666837;86;21155;-66
2022/08/26 03:16:12;;;;;;;11.70;6.83;;;;;;;16.20;83.22;99148.42;1666665;86;20979;-66
2022/08/26 03:18:39;;;;;;;8.08;7.10;;;;;;;16.19;83.46;99145.91;1666735;85;21093;-66
2022/08/26 03:21:12;;;;;;;8.28;7.08;;;;;;;16.17;83.80;99149.14;1666703;86;21065;-66
2022/08/26 03:23:40;;;;;;;9.95;7.75;;;;;;;16.17;83.93;99145.20;1666900;86;21530;-66
2022/08/26 03:26:07;;;;;;;9.48;8.15;;;;;;;16.17;84.03;99137.33;1666811;86;21577;-65
2022/08/26 03:28:35;;;;;;;8.10;7.10;;;;;;;16.16;84.26;99137.80;1666864;86;21412;-66
2022/08/26 03:31:01;;;;;;;8.55;6.58;;;;;;;16.16;84.30;99133.88;1666711;86;20983;-66
2022/08/26 03:33:28;;;;;;;8.00;7.03;;;;;;;16.18;84.50;99135.92;1666833;86;21026;-66
2022/08/26 03:35:54;;;;;;;9.73;7.12;;;;;;;16.20;84.60;99132.69;1666760;86;21003;-66
2022/08/26 03:38:23;;;;;;;11.70;7.75;;;;;;;16.26;84.71;99132.73;1666922;86;21490;-66
2022/08/26 03:40:51;;;;;;;10.75;7.70;;;;;;;16.31;84.57;99131.11;1666796;85;21047;-65
2022/08/26 03:43:17;;;;;;;13.03;8.15;;;;;;;16.36;84.44;99127.23;1666705;86;21490;-65
2022/08/26 03:45:44;;;;;;;12.78;7.47;;;;;;;16.41;84.24;99125.56;1666695;86;21034;-65
2022/08/26 03:48:11;;;;;;;11.90;7.03;;;;;;;16.47;84.06;99129.91;1667012;86;21498;-65
2022/08/26 03:50:37;;;;;;;10.08;7.40;;;;;;;16.58;83.94;99130.95;1666822;86;21152;-65
2022/08/26 03:53:06;;;;;;;9.58;7.58;;;;;;;16.73;83.76;99136.45;1666687;86;20947;-65
2022/08/26 03:55:32;;;;;;;10.50;6.95;;;;;;;16.90;83.45;99136.06;1666716;86;21022;-65
2022/08/26 03:57:59;;;;;;;8.83;7.35;;;;;;;17.05;82.88;99132.31;1666779;86;21074;-66
2022/08/26 04:00:26;;;;;;;14.00;7.62;;;;;;;17.41;81.69;99131.84;1666757;86;20982;-65
2022/08/26 04:02:52;;;;;;;9.65;7.42;;;;;;;17.41;81.69;99131.84;1666744;86;21158;-65
2022/08/26 04:05:20;;;;;;;7.87;6.85;;;;;;;17.52;80.94;99134.05;1668677;86;21030;-66
2022/08/26 04:07:48;;;;;;;7.37;6.30;;;;;;;17.66;80.52;99135.66;1657367;86;21014;-67
2022/08/26 04:10:17;;;;;;;8.95;6.72;;;;;;;18.03;78.82;99136.31;1638276;86;21419;-66
2022/08/26 04:12:43;;;;;;;11.60;7.67;;;;;;;18.03;78.82;99136.31;1669760;86;21639;-66
2022/08/26 04:15:13;;;;;;;13.30;7.95;;;;;;;18.20;77.75;99131.05;1669880;85;21160;-66
2022/08/26 04:17:40;;;;;;;11.05;7.30;;;;;;;18.37;76.63;99138.48;1657436;86;21030;-66
2022/08/26 04:20:08;;;;;;;12.43;6.80;;;;;;;18.54;75.92;99131.88;1664756;86;21089;-66
2022/08/26 04:22:35;;;;;;;9.58;7.47;;;;;;;18.68;74.98;99130.33;1669714;86;21502;-66
2022/08/26 04:25:02;;;;;;;12.33;7.30;;;;;;;18.79;74.13;99135.55;1669841;86;20982;-66
2022/08/26 04:27:28;;;;;;;7.90;6.95;;;;;;;18.94;73.95;99134.82;1657459;86;21211;-66
2022/08/26 04:29:55;;;;;;;10.48;6.85;;;;;;;19.14;72.66;99139.30;1664708;86;20975;-66
2022/08/26 04:32:22;;;;;;;8.75;7.20;;;;;;;19.36;71.98;99137.55;1669850;86;21458;-66
2022/08/26 04:34:48;;;;;;;13.95;8.45;;;;;;;19.58;70.63;99132.19;1657473;86;21031;-67
2022/08/26 04:37:17;;;;;;;8.63;7.25;;;;;;;19.73;69.62;99132.20;1664751;86;20975;-66
2022/08/26 04:39:44;;;;;;;7.95;7.15;;;;;;;19.87;69.02;99131.03;1669802;86;21173;-67
2022/08/26 04:42:12;;;;;;;10.82;7.20;;;;;;;20.02;68.53;99125.75;1657390;86;21004;-67
2022/08/26 04:44:39;;;;;;;8.38;7.50;;;;;;;20.14;68.11;99124.72;1646291;87;21073;-67
2022/08/26 04:47:06;;;;;;;10.75;7.45;;;;;;;20.26;67.82;99125.45;1655475;86;21642;-67
2022/08/26 04:49:33;;;;;;;9.70;7.17;;;;;;;20.43;67.07;99126.65;1646326;87;20973;-67
2022/08/26 04:51:59;;;;;;;22.07;7.70;;;;;;;20.58;66.66;99125.33;1655391;86;21160;-67
2022/08/26 04:54:26;;;;;;;9.20;7.33;;;;;;;20.75;66.37;99120.70;1618235;87;21049;-66
2022/08/26 04:56:53;;;;;;;11.73;8.30;;;;;;;20.91;65.49;99122.81;1655482;86;20984;-66
2022/08/26 04:59:22;;;;;;;8.05;7.22;;;;;;;21.02;64.53;99125.80;1646637;87;21033;-66
2022/08/26 05:01:50;;;;;;;13.50;7.62;;;;;;;21.06;64.54;99123.23;1655419;86;21086;-66
2022/08/26 05:04:18;;;;;;;10.28;7.08;;;;;;;21.08;63.81;99130.05;1644984;85;21176;-67
2022/08/26 05:06:47;;;;;;;8.00;7.22;;;;;;;21.03;63.50;99124.34;1619135;87;21080;-67
2022/08/26 05:09:13;;;;;;;11.57;6.42;;;;;;;20.99;63.82;99124.26;1619495;88;21001;-66
2022/08/26 05:11:40;;;;;;;16.00;7.87;;;;;;;20.92;63.63;99127.96;1619494;87;21077;-66
2022/08/26 05:14:07;;;;;;;10.25;7.20;;;;;;;20.85;63.72;99129.95;1619408;87;21025;-66
2022/08/26 05:16:34;;;;;;;8.35;7.45;;;;;;;20.78;64.79;99128.37;1619499;88;21142;-66
2022/08/26 05:19:02;;;;;;;9.20;6.60;;;;;;;20.78;64.83;99128.37;1619451;87;21032;-66
2022/08/26 05:21:29;;;;;;;10.30;6.75;;;;;;;20.77;64.42;99129.33;1619511;87;21175;-66
2022/08/26 05:23:56;;;;;;;11.43;6.80;;;;;;;20.75;64.69;99129.95;1619449;87;21863;-66
2022/08/26 05:26:26;;;;;;;8.85;7.03;;;;;;;20.77;64.30;99125.86;1619469;87;20997;-66
2022/08/26 05:28:53;;;;;;;8.63;6.87;;;;;;;20.77;63.99;99129.33;1619381;88;21814;-66
2022/08/26 05:31:30;;;;;;;9.53;6.70;;;;;;;20.76;64.30;99127.66;1619279;88;21021;-67
2022/08/26 05:33:56;;;;;;;10.78;7.00;;;;;;;20.75;64.19;99125.98;1619340;87;20978;-66
2022/08/26 05:36:26;;;;;;;8.80;6.47;;;;;;;20.72;63.84;99121.45;1597793;88;39148;-66
2022/08/26 05:38:54;;;;;;;13.62;7.03;;;;;;;20.71;64.34;99114.02;1634473;86;21473;-66
2022/08/26 05:41:27;;;;;;;9.98;6.08;;;;;;;20.75;63.88;99106.66;1660608;86;21248;-66
2022/08/26 05:43:57;;;;;;;9.78;6.30;;;;;;;20.82;63.51;99111.23;1660624;85;28608;-66
2022/08/26 05:46:25;;;;;;;9.88;6.12;;;;;;;20.84;63.47;99106.66;1660644;86;20981;-66
2022/08/26 05:48:54;;;;;;;9.53;6.53;;;;;;;20.85;63.38;99107.48;1660708;86;21025;-66
2022/08/26 05:51:20;;;;;;;9.93;7.05;;;;;;;20.87;63.66;99107.70;1633624;86;21136;-65
2022/08/26 05:53:47;;;;;;;23.07;7.50;;;;;;;20.96;63.57;99120.59;1660495;86;22040;-65
2022/08/26 05:56:14;;;;;;;10.60;6.22;;;;;;;21.06;62.68;99121.91;1659188;86;21108;-66
2022/08/26 05:58:41;;;;;;;11.35;6.58;;;;;;;21.10;61.86;99119.34;1660565;86;20997;-65
2022/08/26 06:01:14;;;;;;;7.28;6.33;;;;;;;21.07;62.12;99111.69;1660569;86;21064;-65
2022/08/26 06:03:44;;;;;;;10.32;6.50;;;;;;;21.06;62.13;99121.91;1619140;87;20993;-65
2022/08/26 06:06:14;;;;;;;10.95;5.72;;;;;;;21.05;61.65;99122.39;1654991;86;21826;-65
2022/08/26 06:08:41;;;;;;;17.27;5.83;;;;;;;21.08;61.81;99115.52;1665025;86;21011;-65
2022/08/26 06:11:10;;;;;;;10.50;6.12;;;;;;;21.12;61.53;99115.59;1665141;86;21139;-65
2022/08/26 06:13:38;;;;;;;9.35;5.97;;;;;;;21.18;61.46;99115.53;1665171;86;21062;-65
2022/08/26 06:16:09;;;;;;;8.35;6.15;;;;;;;21.26;61.98;99115.20;1640594;86;21008;-65
2022/08/26 06:18:39;;;;;;;11.22;6.12;;;;;;;21.32;61.27;99111.16;1640271;86;21869;-65
2022/08/26 06:21:15;;;;;;;9.03;5.97;;;;;;;21.39;61.07;99119.36;1665017;86;20959;-65
2022/08/26 06:26:29;;;;;;;10.70;6.12;;;;;;;21.56;60.32;99118.67;1665241;86;21518;-65
2022/08/26 06:28:56;;;;;;;12.68;6.83;;;;;;;21.66;60.14;99122.12;1665167;85;20979;-66
2022/08/26 06:31:23;;;;;;;7.05;6.17;;;;;;;21.76;60.14;99118.98;1665100;85;21159;-66
2022/08/26 06:33:50;;;;;;;9.73;6.05;;;;;;;21.83;59.17;99120.55;1665052;86;21066;-66
2022/08/26 06:36:22;;;;;;;10.05;6.03;;;;;;;21.87;59.35;99121.94;1640277;86;21034;-66
2022/08/26 06:38:51;;;;;;;16.37;5.90;;;;;;;21.95;58.71;99110.98;1640924;86;20998;-66
2022/08/26 06:41:21;;;;;;;13.70;5.58;;;;;;;22.08;58.83;99115.98;1665070;86;21136;-64
2022/08/26 06:43:51;;;;;;;12.25;6.03;;;;;;;22.19;57.83;99110.97;1635147;87;21205;-65
2022/08/26 06:46:20;;;;;;;11.38;5.62;;;;;;;22.28;57.26;99115.41;1614902;88;21066;-65
2022/08/26 06:48:46;;;;;;;18.20;6.83;;;;;;;22.37;57.08;99115.87;1615019;88;21061;-66
2022/08/26 06:51:20;;;;;;;8.73;6.28;;;;;;;22.45;57.06;99108.00;1647050;87;21581;-66
2022/08/26 06:53:48;;;;;;;7.80;5.35;;;;;;;22.56;55.79;99102.52;1647064;87;21111;-66
2022/08/26 06:56:18;;;;;;;11.95;5.92;;;;;;;22.65;56.42;99107.40;1615062;88;22645;-66
2022/08/26 06:58:44;;;;;;;8.13;5.55;;;;;;;22.77;55.86;99100.95;1636793;86;21058;-65
2022/08/26 07:01:26;;;;;;;12.00;5.85;;;;;;;22.89;54.86;99105.05;1646866;87;20980;-65
2022/08/26 07:03:55;;;;;;;10.23;5.20;;;;;;;22.96;54.92;99107.45;1615104;88;21452;-65
2022/08/26 07:06:22;;;;;;;16.15;6.47;;;;;;;23.09;54.82;99106.22;1614407;88;20989;-65
2022/08/26 07:08:51;;;;;;;12.40;5.12;;;;;;;23.20;53.19;99099.34;1637956;87;21793;-65
2022/08/26 07:11:18;;;;;;;8.20;5.03;;;;;;;23.28;53.02;99096.28;1643916;87;21102;-65
2022/08/26 07:13:46;;;;;;;11.73;5.17;;;;;;;23.35;52.81;99096.02;1643808;87;20977;-65
2022/08/26 07:16:16;;;;;;;9.78;5.15;;;;;;;23.45;52.59;99093.75;1643841;87;21060;-65
2022/08/26 07:18:44;;;;;;;13.25;5.45;;;;;;;23.55;51.40;99098.52;1643878;87;21033;-66
2022/08/26 07:21:13;;;;;;;15.35;5.92;;;;;;;23.63;51.11;99097.23;1643890;87;21162;-66
2022/08/26 07:23:40;;;;;;;11.70;4.72;;;;;;;23.75;51.27;99105.30;1643798;87;21038;-65
2022/08/26 07:26:15;;;;;;;10.90;5.00;;;;;;;23.85;51.36;99092.73;1643946;87;21122;-64
2022/08/26 07:28:42;;;;;;;13.38;5.10;;;;;;;23.97;50.05;99103.45;1643871;87;21115;-65
2022/08/26 07:31:10;;;;;;;14.68;5.15;;;;;;;24.08;48.66;99102.82;1637964;86;21079;-65
2022/08/26 07:33:38;;;;;;;14.38;5.75;;;;;;;24.16;48.60;99090.92;1652908;86;21834;-66
2022/08/26 07:36:07;;;;;;;12.25;5.17;;;;;;;24.23;48.41;99090.59;1664335;86;20944;-66
2022/08/26 07:38:37;;;;;;;10.98;5.08;;;;;;;24.32;48.63;99094.51;1652932;86;21525;-66
2022/08/26 07:41:05;;;;;;;9.60;4.97;;;;;;;24.39;47.93;99082.72;1664372;85;21117;-66
2022/08/26 07:43:34;;;;;;;21.68;5.62;;;;;;;24.50;48.02;99087.76;1653285;86;21473;-65
2022/08/26 07:46:01;;;;;;;19.92;5.70;;;;;;;24.59;47.33;99083.28;1664085;86;21186;-68
2022/08/26 07:48:28;;;;;;;18.27;5.08;;;;;;;24.66;47.49;99084.30;1630494;87;21086;-67
2022/08/26 07:50:57;;;;;;;13.68;5.65;;;;;;;24.72;46.64;99088.48;1606748;87;21030;-67
2022/08/26 07:53:24;;;;;;;17.30;5.70;;;;;;;24.83;46.05;99082.02;1632399;87;21597;-66
2022/08/26 07:55:51;;;;;;;25.68;6.10;;;;;;;24.91;45.72;99083.87;1621178;88;21035;-65
2022/08/26 07:58:17;;;;;;;15.53;5.45;;;;;;;25.00;46.05;99078.91;1605165;87;21273;-68
2022/08/26 08:00:45;;;;;;;13.13;5.40;;;;;;;25.11;46.36;99079.09;1657418;86;21568;-67
2022/08/26 08:03:13;;;;;;;15.40;5.50;;;;;;;25.21;45.62;99081.91;1666014;86;20958;-67
2022/08/26 08:05:40;;;;;;;20.32;5.35;;;;;;;25.28;45.05;99073.61;1638230;86;21511;-67
2022/08/26 08:08:08;;;;;;;19.73;5.90;;;;;;;25.33;44.68;99065.96;1603192;89;21095;-66
2022/08/26 08:10:35;;;;;;;16.75;5.28;;;;;;;25.40;44.64;99070.09;1604149;89;21981;-66
2022/08/26 08:13:04;;;;;;;18.20;6.28;;;;;;;25.45;44.10;99070.44;1603111;89;21053;-65
2022/08/26 08:15:31;;;;;;;20.48;5.90;;;;;;;25.52;44.54;99069.27;1604022;88;21039;-66
2022/08/26 08:17:59;;;;;;;15.65;5.00;;;;;;;25.60;43.74;99070.57;1604083;88;21058;-68
2022/08/26 08:20:27;;;;;;;18.20;5.92;;;;;;;25.65;42.40;99065.61;1604031;88;21038;-68
2022/08/26 08:22:55;;;;;;;19.77;5.90;;;;;;;25.70;43.21;99058.78;1603055;88;21191;-68
2022/08/26 08:25:22;;;;;;;22.93;6.20;;;;;;;25.79;42.48;99063.57;1610950;88;20998;-68
2022/08/26 08:27:48;;;;;;;23.30;5.80;;;;;;;25.88;42.79;99064.39;1631370;88;21045;-68
2022/08/26 08:30:18;;;;;;;28.27;5.75;;;;;;;25.93;42.33;99061.55;1615070;88;21047;-70
2022/08/26 08:32:45;;;;;;;27.27;6.33;;;;;;;26.01;42.34;99057.52;1632710;88;20974;-68
2022/08/26 08:35:33;;;;;;;21.52;6.37;;;;;;;26.11;42.27;99055.16;1614973;88;21667;-68
2022/08/26 08:38:02;;;;;;;38.75;7.97;;;;;;;26.23;41.67;99043.11;1628947;87;21006;-69
2022/08/26 08:40:30;;;;;;;26.57;5.72;;;;;;;26.40;40.69;99046.05;1628905;88;20985;-68
2022/08/26 08:43:06;;;;;;;32.55;6.30;;;;;;;26.53;40.49;99046.33;1647350;86;21532;-68
2022/08/26 08:45:50;;;;;;;38.25;6.12;;;;;;;26.63;39.58;99054.09;1630129;86;21489;-69
2022/08/26 08:48:29;;;;;;;29.60;6.45;;;;;;;26.68;39.54;99039.73;1621383;88;21566;-69
2022/08/26 08:51:27;;;;;;;26.93;6.28;;;;;;;26.76;39.89;99041.02;1621411;88;21024;-69
2022/08/26 08:53:54;;;;;;;29.15;5.87;;;;;;;26.88;39.72;99042.77;1618137;88;21083;-68
2022/08/26 08:56:31;;;;;;;42.00;6.95;;;;;;;26.98;37.51;99036.70;1621261;88;21134;-68
2022/08/26 08:59:15;;;;;;;39.78;6.50;;;;;;;27.05;36.71;99044.33;1621569;88;21010;-69
2022/08/26 09:02:01;;;;;;;64.00;8.18;;;;;;;27.12;35.71;99051.13;1630967;86;21271;-67
2022/08/26 09:05:10;;;;;;;45.43;8.25;;;;;;;27.15;36.87;99042.26;1657635;86;21562;-68
2022/08/26 09:07:43;;;;;;;34.43;6.60;;;;;;;27.24;36.81;99032.32;1658902;86;21023;-68
2022/08/26 09:10:28;;;;;;;37.88;6.55;;;;;;;27.35;36.44;99026.06;1655122;86;21078;-69
2022/08/26 09:12:56;;;;;;;33.48;5.70;;;;;;;27.46;36.62;99031.45;1659129;86;20979;-68
2022/08/26 09:15:29;;;;;;;28.23;6.55;;;;;;;27.53;35.98;99024.88;1658794;86;21157;-68
2022/08/26 09:18:21;;;;;;;27.62;6.20;;;;;;;27.57;35.38;99024.84;1657879;86;21014;-69
2022/08/26 09:21:03;;;;;;;29.02;7.35;;;;;;;27.60;34.40;99027.98;1658843;86;21423;-76
2022/08/26 09:23:31;;;;;;;29.55;5.83;;;;;;;27.70;35.06;99029.07;1657447;86;20970;-76
2022/08/26 09:26:14;;;;;;;31.15;5.65;;;;;;;27.82;35.51;99020.91;1657430;86;21513;-74
2022/08/26 09:28:48;;;;;;;22.98;6.15;;;;;;;27.91;35.27;99014.97;1654719;86;21286;-73
2022/08/26 09:31:22;;;;;;;33.28;5.37;;;;;;;27.98;35.07;99012.69;1657315;86;21562;-77
2022/08/26 09:33:53;;;;;;;27.48;5.60;;;;;;;28.03;33.73;99023.66;1657389;86;20994;-76
2022/08/26 09:36:35;;;;;;;23.73;5.20;;;;;;;28.01;32.74;99016.84;1633540;86;20989;-74
2022/08/26 09:39:26;;;;;;;24.23;4.72;;;;;;;27.98;33.67;99019.37;1666941;86;21154;-73
2022/08/26 09:42:21;;;;;;;31.25;5.03;;;;;;;28.02;33.69;99013.98;1676034;85;21856;-73
2022/08/26 09:45:02;;;;;;;26.00;4.33;;;;;;;28.12;33.49;99009.19;1684218;85;21007;-73
2022/08/26 09:47:48;;;;;;;20.40;4.33;;;;;;;28.21;34.14;99017.12;1686871;84;20963;-74
2022/08/26 09:50:39;;;;;;;15.85;4.08;;;;;;;28.32;32.85;99019.33;1686583;84;21059;-73
2022/08/26 09:53:15;;;;;;;24.67;5.25;;;;;;;28.45;32.48;99008.77;1686704;84;21496;-70
2022/08/26 09:55:45;;;;;;;20.08;3.65;;;;;;;28.59;32.51;99001.20;1686868;85;21143;-69
2022/08/26 09:58:33;;;;;;;40.28;13.60;;;;;;;28.69;31.46;99011.59;1686786;85;21488;-66
2022/08/26 10:01:03;;;;;;;24.05;4.55;;;;;;;28.70;31.92;99006.06;1684195;84;21019;-67
2022/08/26 10:03:32;;;;;;;16.37;3.90;;;;;;;28.73;30.87;99012.88;1686927;85;21020;-68
2022/08/26 10:06:20;;;;;;;17.27;4.33;;;;;;;28.74;30.72;99003.84;1686930;85;21463;-68
2022/08/26 10:08:54;;;;;;;22.90;4.10;;;;;;;28.76;30.94;99003.14;1679049;85;21452;-66
2022/08/26 10:11:49;;;;;;;15.90;4.00;;;;;;;28.82;30.46;99004.23;1686596;84;20976;-66
2022/08/26 10:14:28;;;;;;;18.50;3.47;;;;;;;28.85;29.86;99005.19;1686887;85;21487;-66
2022/08/26 10:17:08;;;;;;;13.95;2.85;;;;;;;28.90;29.69;99002.27;1686896;84;21047;-65
2022/08/26 10:19:40;;;;;;;16.10;3.30;;;;;;;28.94;29.28;99002.20;1682272;85;21432;-70
2022/08/26 10:22:11;;;;;;;13.98;3.42;;;;;;;28.98;29.73;99000.77;1683899;85;21849;-66
2022/08/26 10:24:53;;;;;;;10.53;3.02;;;;;;;29.00;30.03;99000.58;1685302;84;21004;-69
2022/08/26 10:27:54;;;;;;;8.93;2.62;;;;;;;28.99;29.15;98996.25;1686872;85;21440;-66
2022/08/26 10:30:23;;;;;;;9.73;2.17;;;;;;;28.95;25.18;99019.09;1670470;84;20995;-66
2022/08/26 10:32:57;;;;;;;12.20;2.60;;;;;;;28.90;25.43;99009.47;1686911;85;20975;-66
2022/08/26 10:35:25;;;;;;;15.05;2.70;;;;;;;28.91;26.67;99004.43;1686811;84;21153;-68
2022/08/26 10:37:56;;;;;;;10.63;2.40;;;;;;;28.99;27.21;99009.13;1680032;84;20960;-68
2022/08/26 10:40:31;;;;;;;16.00;2.80;;;;;;;29.09;27.45;99008.81;1679654;85;21114;-73
2022/08/26 10:43:08;;;;;;;9.10;2.45;;;;;;;29.19;27.54;99010.63;1680416;84;20964;-72
2022/08/26 10:45:52;;;;;;;8.55;2.62;;;;;;;29.27;27.17;99002.47;1681525;85;21003;-72
2022/08/26 10:48:24;;;;;;;20.30;3.27;;;;;;;29.33;27.12;98997.68;1679288;85;21221;-72
2022/08/26 10:50:51;;;;;;;6.45;3.40;;;;;;;29.37;27.85;99011.01;1679212;84;21059;-72
2022/08/26 10:53:43;;;;;;;9.95;3.20;;;;;;;29.38;28.30;99006.45;1681740;84;21455;-72
2022/08/26 10:56:30;;;;;;;14.83;3.02;;;;;;;29.35;28.37;99006.35;1679144;84;21500;-73
2022/08/26 10:59:12;;;;;;;11.80;3.17;;;;;;;29.29;28.53;99002.27;1681198;84;21020;-73
2022/08/26 11:01:59;;;;;;;10.85;3.12;;;;;;;29.29;28.56;98993.73;1680959;85;21155;-73
2022/08/26 11:04:48;;;;;;;12.47;3.17;;;;;;;29.27;28.92;98994.94;1680500;85;21024;-70
2022/08/26 11:07:44;;;;;;;18.20;3.02;;;;;;;29.25;28.51;98998.33;1684112;84;21075;-68
2022/08/26 11:10:25;;;;;;;7.03;2.55;;;;;;;29.20;29.33;99000.75;1681717;84;20984;-69
2022/08/26 11:13:04;;;;;;;12.65;2.17;;;;;;;29.12;27.14;99000.39;1673024;84;20981;-68
2022/08/26 11:15:54;;;;;;;5.83;1.67;;;;;;;29.03;25.96;98998.86;1659581;86;21346;-69
2022/08/26 11:18:42;;;;;;;3.98;1.60;;;;;;;28.96;24.49;99011.39;1656133;86;20982;-68
2022/08/26 11:21:50;;;;;;;5.60;1.85;;;;;;;28.92;24.91;98998.06;1660204;86;21450;-68
2022/08/26 11:24:53;;;;;;;12.30;2.05;;;;;;;28.92;24.72;98999.40;1659837;86;21568;-69
2022/08/26 11:27:37;;;;;;;5.67;2.10;;;;;;;28.90;25.55;98998.76;1623058;86;21482;-68
2022/08/26 11:30:15;;;;;;;10.35;2.33;;;;;;;28.90;26.37;98994.23;1658341;85;21159;-69
2022/08/26 11:32:49;;;;;;;9.95;2.10;;;;;;;28.88;26.59;98992.26;1639428;86;21013;-69
2022/08/26 11:35:24;;;;;;;7.75;2.33;;;;;;;28.91;27.45;98989.20;1643804;86;21520;-68
2022/08/26 11:38:04;;;;;;;8.75;2.08;;;;;;;28.97;27.99;98994.30;1637045;85;21446;-69
2022/08/26 11:40:37;;;;;;;9.60;2.12;;;;;;;29.01;26.53;98989.69;1631998;87;21124;-69
2022/08/26 11:43:13;;;;;;;8.68;2.40;;;;;;;29.00;26.92;98988.03;1631742;88;21137;-69
2022/08/26 11:45:49;;;;;;;7.62;1.80;;;;;;;28.98;26.27;98992.74;1631828;87;20970;-69
2022/08/26 11:48:31;;;;;;;8.55;2.30;;;;;;;28.89;26.12;99007.81;1628570;88;21525;-69
2022/08/26 11:51:09;;;;;;;8.33;1.87;;;;;;;28.78;26.40;98989.03;1632094;88;21010;-69
2022/08/26 11:53:41;;;;;;;9.10;2.22;;;;;;;28.73;26.84;98986.95;1627036;88;21038;-68